sensor_id;sensor_type;location;lat;lon;timestamp;P1;durP1;ratioP1;P2;durP2;ratioP2
16354;SDS011;8287;51.644;8.494;2022-10-03T00:01:02;5.93;;;4.10;;
16354;SDS011;8287;51.644;8.494;2022-10-03T00:03:42;5.38;;;4.65;;
16354;SDS011;8287;51.644;8.494;2022-10-03T00:06:24;7.50;;;4.53;;
16354;SDS011;8287;51.644;8.494;2022-10-03T00:09:15;8.50;;;4.25;;
16354;SDS011;8287;51.644;8.494;2022-10-03T00:11:56;15.30;;;5.13;;
16354;SDS011;8287;51.644;8.494;2022-10-03T00:14:31;9.57;;;4.20;;
16354;SDS011;8287;51.644;8.494;2022-10-03T00:17:08;15.57;;;4.70;;
16354;SDS011;8287;51.644;8.494;2022-10-03T00:19:42;15.60;;;4.75;;
16354;SDS011;8287;51.644;8.494;2022-10-03T00:22:19;6.18;;;4.28;;
16354;SDS011;8287;51.644;8.494;2022-10-03T00:25:02;9.35;;;3.95;;
16354;SDS011;8287;51.644;8.494;2022-10-03T00:27:42;9.30;;;4.43;;
16354;SDS011;8287;51.644;8.494;2022-10-03T00:30:14;8.27;;;4.22;;
16354;SDS011;8287;51.644;8.494;2022-10-03T00:32:56;12.38;;;4.95;;
16354;SDS011;8287;51.644;8.494;2022-10-03T00:35:34;14.93;;;5.05;;
16354;SDS011;8287;51.644;8.494;2022-10-03T00:38:26;12.43;;;3.75;;
16354;SDS011;8287;51.644;8.494;2022-10-03T00:44:17;8.38;;;4.47;;
16354;SDS011;8287;51.644;8.494;2022-10-03T00:50:11;5.50;;;3.85;;
16354;SDS011;8287;51.644;8.494;2022-10-03T00:53:06;9.20;;;4.70;;
16354;SDS011;8287;51.644;8.494;2022-10-03T00:55:52;10.38;;;4.38;;
16354;SDS011;8287;51.644;8.494;2022-10-03T00:58:29;7.07;;;3.78;;
16354;SDS011;8287;51.644;8.494;2022-10-03T01:01:20;13.68;;;4.75;;
16354;SDS011;8287;51.644;8.494;2022-10-03T01:03:57;8.27;;;4.63;;
16354;SDS011;8287;51.644;8.494;2022-10-03T01:06:39;7.70;;;4.43;;
16354;SDS011;8287;51.644;8.494;2022-10-03T01:09:15;12.52;;;4.88;;
16354;SDS011;8287;51.644;8.494;2022-10-03T01:11:51;5.13;;;4.55;;
16354;SDS011;8287;51.644;8.494;2022-10-03T01:14:37;6.93;;;4.03;;
16354;SDS011;8287;51.644;8.494;2022-10-03T01:17:20;9.65;;;4.13;;
16354;SDS011;8287;51.644;8.494;2022-10-03T01:20:05;7.97;;;4.47;;
16354;SDS011;8287;51.644;8.494;2022-10-03T01:22:47;9.45;;;4.82;;
16354;SDS011;8287;51.644;8.494;2022-10-03T01:25:31;13.70;;;4.50;;
16354;SDS011;8287;51.644;8.494;2022-10-03T01:28:32;7.07;;;4.05;;
16354;SDS011;8287;51.644;8.494;2022-10-03T01:31:27;8.35;;;4.10;;
16354;SDS011;8287;51.644;8.494;2022-10-03T01:34:04;6.18;;;4.32;;
16354;SDS011;8287;51.644;8.494;2022-10-03T01:36:38;14.02;;;4.97;;
16354;SDS011;8287;51.644;8.494;2022-10-03T01:39:15;5.93;;;4.32;;
16354;SDS011;8287;51.644;8.494;2022-10-03T01:41:49;14.60;;;4.57;;
16354;SDS011;8287;51.644;8.494;2022-10-03T01:44:25;11.70;;;4.75;;
16354;SDS011;8287;51.644;8.494;2022-10-03T01:47:06;13.35;;;4.97;;
16354;SDS011;8287;51.644;8.494;2022-10-03T01:49:44;10.02;;;5.13;;
16354;SDS011;8287;51.644;8.494;2022-10-03T01:52:18;9.90;;;5.03;;
16354;SDS011;8287;51.644;8.494;2022-10-03T01:54:51;9.10;;;4.53;;
16354;SDS011;8287;51.644;8.494;2022-10-03T01:57:28;15.20;;;4.65;;
16354;SDS011;8287;51.644;8.494;2022-10-03T02:00:06;12.65;;;4.38;;
16354;SDS011;8287;51.644;8.494;2022-10-03T02:02:38;9.05;;;3.70;;
16354;SDS011;8287;51.644;8.494;2022-10-03T02:05:11;10.65;;;4.75;;
16354;SDS011;8287;51.644;8.494;2022-10-03T02:07:44;5.97;;;4.35;;
16354;SDS011;8287;51.644;8.494;2022-10-03T02:10:21;5.15;;;3.72;;
16354;SDS011;8287;51.644;8.494;2022-10-03T02:12:58;12.50;;;4.55;;
16354;SDS011;8287;51.644;8.494;2022-10-03T02:15:33;11.15;;;4.55;;
16354;SDS011;8287;51.644;8.494;2022-10-03T02:18:13;7.20;;;4.20;;
16354;SDS011;8287;51.644;8.494;2022-10-03T02:20:45;6.68;;;4.38;;
16354;SDS011;8287;51.644;8.494;2022-10-03T02:23:35;6.45;;;4.97;;
16354;SDS011;8287;51.644;8.494;2022-10-03T02:26:08;9.32;;;4.57;;
16354;SDS011;8287;51.644;8.494;2022-10-03T02:28:58;6.60;;;4.70;;
16354;SDS011;8287;51.644;8.494;2022-10-03T02:31:54;6.88;;;4.50;;
16354;SDS011;8287;51.644;8.494;2022-10-03T02:34:56;14.98;;;5.03;;
16354;SDS011;8287;51.644;8.494;2022-10-03T02:52:37;6.32;;;4.85;;
16354;SDS011;8287;51.644;8.494;2022-10-03T02:59:02;12.18;;;4.05;;
16354;SDS011;8287;51.644;8.494;2022-10-03T03:11:19;7.43;;;4.45;;
16354;SDS011;8287;51.644;8.494;2022-10-03T03:14:16;13.30;;;4.75;;
16354;SDS011;8287;51.644;8.494;2022-10-03T03:16:59;10.82;;;5.00;;
16354;SDS011;8287;51.644;8.494;2022-10-03T03:22:32;13.32;;;5.05;;
16354;SDS011;8287;51.644;8.494;2022-10-03T03:25:11;10.30;;;5.63;;
16354;SDS011;8287;51.644;8.494;2022-10-03T03:28:08;12.23;;;5.13;;
16354;SDS011;8287;51.644;8.494;2022-10-03T03:30:46;7.07;;;5.57;;
16354;SDS011;8287;51.644;8.494;2022-10-03T03:33:20;4.90;;;4.28;;
16354;SDS011;8287;51.644;8.494;2022-10-03T03:35:58;8.57;;;4.90;;
16354;SDS011;8287;51.644;8.494;2022-10-03T03:38:31;8.10;;;4.78;;
16354;SDS011;8287;51.644;8.494;2022-10-03T03:41:13;8.40;;;4.70;;
16354;SDS011;8287;51.644;8.494;2022-10-03T03:44:07;10.48;;;5.25;;
16354;SDS011;8287;51.644;8.494;2022-10-03T03:46:56;8.45;;;4.70;;
16354;SDS011;8287;51.644;8.494;2022-10-03T03:49:45;11.00;;;5.22;;
16354;SDS011;8287;51.644;8.494;2022-10-03T03:52:29;9.85;;;5.30;;
16354;SDS011;8287;51.644;8.494;2022-10-03T03:55:12;13.70;;;5.45;;
16354;SDS011;8287;51.644;8.494;2022-10-03T03:57:53;13.98;;;5.03;;
16354;SDS011;8287;51.644;8.494;2022-10-03T04:00:38;8.75;;;5.05;;
16354;SDS011;8287;51.644;8.494;2022-10-03T04:03:23;10.32;;;4.85;;
16354;SDS011;8287;51.644;8.494;2022-10-03T04:06:13;12.43;;;4.93;;
16354;SDS011;8287;51.644;8.494;2022-10-03T04:09:02;8.75;;;5.68;;
16354;SDS011;8287;51.644;8.494;2022-10-03T04:11:43;11.02;;;5.18;;
16354;SDS011;8287;51.644;8.494;2022-10-03T04:17:18;8.13;;;5.28;;
16354;SDS011;8287;51.644;8.494;2022-10-03T04:20:15;15.00;;;6.32;;
16354;SDS011;8287;51.644;8.494;2022-10-03T04:23:03;10.93;;;5.90;;
16354;SDS011;8287;51.644;8.494;2022-10-03T04:25:54;13.07;;;5.25;;
16354;SDS011;8287;51.644;8.494;2022-10-03T04:28:43;9.45;;;4.93;;
16354;SDS011;8287;51.644;8.494;2022-10-03T04:31:28;5.95;;;4.95;;
16354;SDS011;8287;51.644;8.494;2022-10-03T04:34:08;8.60;;;5.15;;
16354;SDS011;8287;51.644;8.494;2022-10-03T04:36:48;14.63;;;5.28;;
16354;SDS011;8287;51.644;8.494;2022-10-03T04:39:36;9.13;;;5.35;;
16354;SDS011;8287;51.644;8.494;2022-10-03T04:42:15;10.82;;;5.60;;
16354;SDS011;8287;51.644;8.494;2022-10-03T04:44:59;13.65;;;5.75;;
16354;SDS011;8287;51.644;8.494;2022-10-03T04:47:33;14.00;;;5.07;;
16354;SDS011;8287;51.644;8.494;2022-10-03T04:50:16;11.65;;;5.30;;
16354;SDS011;8287;51.644;8.494;2022-10-03T04:52:56;6.53;;;4.68;;
16354;SDS011;8287;51.644;8.494;2022-10-03T04:55:38;10.48;;;5.07;;
16354;SDS011;8287;51.644;8.494;2022-10-03T04:58:18;10.45;;;5.65;;
16354;SDS011;8287;51.644;8.494;2022-10-03T05:00:56;9.27;;;6.03;;
16354;SDS011;8287;51.644;8.494;2022-10-03T05:03:32;14.93;;;5.68;;
16354;SDS011;8287;51.644;8.494;2022-10-03T05:06:14;9.15;;;5.55;;
16354;SDS011;8287;51.644;8.494;2022-10-03T05:08:48;12.02;;;6.13;;
16354;SDS011;8287;51.644;8.494;2022-10-03T05:11:25;15.45;;;5.75;;
16354;SDS011;8287;51.644;8.494;2022-10-03T05:14:08;12.15;;;5.50;;
16354;SDS011;8287;51.644;8.494;2022-10-03T05:16:38;10.70;;;5.68;;
16354;SDS011;8287;51.644;8.494;2022-10-03T05:19:34;12.27;;;6.00;;
16354;SDS011;8287;51.644;8.494;2022-10-03T05:22:32;12.82;;;6.80;;
16354;SDS011;8287;51.644;8.494;2022-10-03T05:25:12;11.80;;;5.78;;
16354;SDS011;8287;51.644;8.494;2022-10-03T05:27:48;11.20;;;5.88;;
16354;SDS011;8287;51.644;8.494;2022-10-03T05:30:23;12.73;;;5.70;;
16354;SDS011;8287;51.644;8.494;2022-10-03T05:33:02;14.38;;;5.97;;
16354;SDS011;8287;51.644;8.494;2022-10-03T05:35:39;10.93;;;6.18;;
16354;SDS011;8287;51.644;8.494;2022-10-03T05:41:19;6.75;;;5.88;;
16354;SDS011;8287;51.644;8.494;2022-10-03T05:43:53;8.35;;;5.70;;
16354;SDS011;8287;51.644;8.494;2022-10-03T05:46:39;11.55;;;5.88;;
16354;SDS011;8287;51.644;8.494;2022-10-03T05:49:26;7.65;;;5.90;;
16354;SDS011;8287;51.644;8.494;2022-10-03T05:52:13;11.10;;;5.53;;
16354;SDS011;8287;51.644;8.494;2022-10-03T05:55:03;9.85;;;6.30;;
16354;SDS011;8287;51.644;8.494;2022-10-03T06:00:42;11.18;;;6.03;;
16354;SDS011;8287;51.644;8.494;2022-10-03T06:03:40;13.65;;;5.90;;
16354;SDS011;8287;51.644;8.494;2022-10-03T06:06:23;10.63;;;5.45;;
16354;SDS011;8287;51.644;8.494;2022-10-03T06:12:09;12.05;;;5.90;;
16354;SDS011;8287;51.644;8.494;2022-10-03T06:14:47;15.63;;;6.47;;
16354;SDS011;8287;51.644;8.494;2022-10-03T06:20:38;6.95;;;5.10;;
16354;SDS011;8287;51.644;8.494;2022-10-03T06:32:30;8.20;;;5.68;;
16354;SDS011;8287;51.644;8.494;2022-10-03T06:35:26;8.48;;;5.95;;
16354;SDS011;8287;51.644;8.494;2022-10-03T06:38:33;8.52;;;5.57;;
16354;SDS011;8287;51.644;8.494;2022-10-03T06:41:25;11.65;;;6.28;;
16354;SDS011;8287;51.644;8.494;2022-10-03T06:44:32;15.20;;;5.60;;
16354;SDS011;8287;51.644;8.494;2022-10-03T06:47:15;10.57;;;5.95;;
16354;SDS011;8287;51.644;8.494;2022-10-03T06:50:12;12.00;;;6.45;;
16354;SDS011;8287;51.644;8.494;2022-10-03T06:53:03;18.52;;;5.82;;
16354;SDS011;8287;51.644;8.494;2022-10-03T06:56:05;8.75;;;5.60;;
16354;SDS011;8287;51.644;8.494;2022-10-03T06:59:01;9.77;;;5.93;;
16354;SDS011;8287;51.644;8.494;2022-10-03T07:01:45;13.73;;;5.90;;
16354;SDS011;8287;51.644;8.494;2022-10-03T07:07:47;16.63;;;5.72;;
16354;SDS011;8287;51.644;8.494;2022-10-03T07:10:41;12.00;;;5.85;;
16354;SDS011;8287;51.644;8.494;2022-10-03T07:13:29;11.15;;;5.63;;
16354;SDS011;8287;51.644;8.494;2022-10-03T07:16:29;13.60;;;6.18;;
16354;SDS011;8287;51.644;8.494;2022-10-03T07:19:16;8.95;;;6.18;;
16354;SDS011;8287;51.644;8.494;2022-10-03T07:22:11;14.02;;;7.25;;
16354;SDS011;8287;51.644;8.494;2022-10-03T07:31:15;13.40;;;6.32;;
16354;SDS011;8287;51.644;8.494;2022-10-03T07:34:11;14.70;;;6.50;;
16354;SDS011;8287;51.644;8.494;2022-10-03T07:36:59;12.82;;;6.32;;
16354;SDS011;8287;51.644;8.494;2022-10-03T07:40:01;11.25;;;6.18;;
16354;SDS011;8287;51.644;8.494;2022-10-03T07:45:43;12.50;;;6.32;;
16354;SDS011;8287;51.644;8.494;2022-10-03T07:51:26;13.85;;;7.32;;
16354;SDS011;8287;51.644;8.494;2022-10-03T07:54:06;10.35;;;6.35;;
16354;SDS011;8287;51.644;8.494;2022-10-03T08:00:12;10.48;;;6.30;;
16354;SDS011;8287;51.644;8.494;2022-10-03T08:15:09;10.07;;;6.60;;
16354;SDS011;8287;51.644;8.494;2022-10-03T08:18:00;11.20;;;6.35;;
16354;SDS011;8287;51.644;8.494;2022-10-03T08:20:47;16.58;;;6.07;;
16354;SDS011;8287;51.644;8.494;2022-10-03T08:26:18;7.20;;;5.88;;
16354;SDS011;8287;51.644;8.494;2022-10-03T08:35:07;13.52;;;7.47;;
16354;SDS011;8287;51.644;8.494;2022-10-03T08:40:51;13.85;;;6.32;;
16354;SDS011;8287;51.644;8.494;2022-10-03T08:43:55;19.70;;;5.35;;
16354;SDS011;8287;51.644;8.494;2022-10-03T08:50:06;10.95;;;5.22;;
16354;SDS011;8287;51.644;8.494;2022-10-03T08:52:52;17.42;;;6.32;;
16354;SDS011;8287;51.644;8.494;2022-10-03T08:55:40;10.48;;;5.13;;
16354;SDS011;8287;51.644;8.494;2022-10-03T09:01:14;11.85;;;6.47;;
16354;SDS011;8287;51.644;8.494;2022-10-03T09:03:57;11.32;;;6.38;;
16354;SDS011;8287;51.644;8.494;2022-10-03T09:06:56;10.05;;;6.35;;
16354;SDS011;8287;51.644;8.494;2022-10-03T09:12:42;12.65;;;6.25;;
16354;SDS011;8287;51.644;8.494;2022-10-03T09:18:35;11.02;;;6.38;;
16354;SDS011;8287;51.644;8.494;2022-10-03T09:21:23;15.45;;;7.93;;
16354;SDS011;8287;51.644;8.494;2022-10-03T09:27:08;9.90;;;6.85;;
16354;SDS011;8287;51.644;8.494;2022-10-03T09:30:07;10.98;;;6.68;;
16354;SDS011;8287;51.644;8.494;2022-10-03T09:32:53;14.60;;;6.53;;
16354;SDS011;8287;51.644;8.494;2022-10-03T09:35:45;9.80;;;6.90;;
16354;SDS011;8287;51.644;8.494;2022-10-03T09:38:43;8.60;;;6.32;;
16354;SDS011;8287;51.644;8.494;2022-10-03T09:47:45;8.43;;;6.18;;
16354;SDS011;8287;51.644;8.494;2022-10-03T10:00:17;13.43;;;6.28;;
16354;SDS011;8287;51.644;8.494;2022-10-03T10:02:54;10.45;;;6.28;;
16354;SDS011;8287;51.644;8.494;2022-10-03T10:11:18;11.68;;;6.97;;
16354;SDS011;8287;51.644;8.494;2022-10-03T10:13:59;7.88;;;5.38;;
16354;SDS011;8287;51.644;8.494;2022-10-03T10:17:06;5.75;;;4.93;;
16354;SDS011;8287;51.644;8.494;2022-10-03T10:19:53;6.95;;;5.03;;
16354;SDS011;8287;51.644;8.494;2022-10-03T10:28:44;7.05;;;4.20;;
16354;SDS011;8287;51.644;8.494;2022-10-03T10:31:54;8.60;;;4.35;;
16354;SDS011;8287;51.644;8.494;2022-10-03T10:35:15;6.03;;;4.07;;
16354;SDS011;8287;51.644;8.494;2022-10-03T10:38:15;8.48;;;4.47;;
16354;SDS011;8287;51.644;8.494;2022-10-03T10:41:04;12.30;;;5.53;;
16354;SDS011;8287;51.644;8.494;2022-10-03T10:47:10;6.70;;;4.20;;
16354;SDS011;8287;51.644;8.494;2022-10-03T10:50:01;11.85;;;4.65;;
16354;SDS011;8287;51.644;8.494;2022-10-03T10:56:01;4.20;;;3.78;;
16354;SDS011;8287;51.644;8.494;2022-10-03T11:02:11;5.63;;;3.63;;
16354;SDS011;8287;51.644;8.494;2022-10-03T11:08:26;9.82;;;3.47;;
16354;SDS011;8287;51.644;8.494;2022-10-03T11:14:24;4.97;;;3.08;;
16354;SDS011;8287;51.644;8.494;2022-10-03T11:23:37;4.18;;;3.60;;
16354;SDS011;8287;51.644;8.494;2022-10-03T11:38:34;3.40;;;3.10;;
16354;SDS011;8287;51.644;8.494;2022-10-03T11:41:13;6.68;;;3.60;;
16354;SDS011;8287;51.644;8.494;2022-10-03T11:46:52;3.65;;;3.10;;
16354;SDS011;8287;51.644;8.494;2022-10-03T11:49:28;5.45;;;3.13;;
16354;SDS011;8287;51.644;8.494;2022-10-03T11:52:10;3.97;;;3.13;;
16354;SDS011;8287;51.644;8.494;2022-10-03T11:54:55;4.82;;;3.13;;
16354;SDS011;8287;51.644;8.494;2022-10-03T11:57:39;3.58;;;3.33;;
16354;SDS011;8287;51.644;8.494;2022-10-03T12:00:10;7.22;;;3.20;;
16354;SDS011;8287;51.644;8.494;2022-10-03T12:02:49;2.75;;;2.53;;
16354;SDS011;8287;51.644;8.494;2022-10-03T12:05:29;5.25;;;3.63;;
16354;SDS011;8287;51.644;8.494;2022-10-03T12:08:14;7.55;;;3.33;;
16354;SDS011;8287;51.644;8.494;2022-10-03T12:11:08;6.90;;;3.33;;
16354;SDS011;8287;51.644;8.494;2022-10-03T12:13:41;7.57;;;3.63;;
16354;SDS011;8287;51.644;8.494;2022-10-03T12:16:21;3.72;;;3.22;;
16354;SDS011;8287;51.644;8.494;2022-10-03T12:18:54;6.13;;;3.72;;
16354;SDS011;8287;51.644;8.494;2022-10-03T12:21:28;3.58;;;3.28;;
16354;SDS011;8287;51.644;8.494;2022-10-03T12:24:19;7.80;;;3.70;;
16354;SDS011;8287;51.644;8.494;2022-10-03T12:26:53;3.97;;;3.58;;
16354;SDS011;8287;51.644;8.494;2022-10-03T12:29:28;6.03;;;3.53;;
16354;SDS011;8287;51.644;8.494;2022-10-03T12:32:01;6.78;;;3.75;;
16354;SDS011;8287;51.644;8.494;2022-10-03T12:34:47;6.32;;;4.55;;
16354;SDS011;8287;51.644;8.494;2022-10-03T12:37:23;7.32;;;3.78;;
16354;SDS011;8287;51.644;8.494;2022-10-03T12:40:02;5.03;;;3.65;;
16354;SDS011;8287;51.644;8.494;2022-10-03T12:42:37;5.80;;;3.78;;
16354;SDS011;8287;51.644;8.494;2022-10-03T12:45:11;8.68;;;5.07;;
16354;SDS011;8287;51.644;8.494;2022-10-03T12:47:55;8.15;;;4.22;;
16354;SDS011;8287;51.644;8.494;2022-10-03T12:50:35;4.88;;;3.83;;
16354;SDS011;8287;51.644;8.494;2022-10-03T12:56:12;4.35;;;3.88;;
16354;SDS011;8287;51.644;8.494;2022-10-03T12:58:48;4.53;;;3.85;;
16354;SDS011;8287;51.644;8.494;2022-10-03T13:01:25;6.18;;;3.75;;
16354;SDS011;8287;51.644;8.494;2022-10-03T13:03:59;6.60;;;4.00;;
16354;SDS011;8287;51.644;8.494;2022-10-03T13:06:35;8.95;;;4.35;;
16354;SDS011;8287;51.644;8.494;2022-10-03T13:09:11;4.15;;;3.85;;
16354;SDS011;8287;51.644;8.494;2022-10-03T13:11:57;3.67;;;3.38;;
16354;SDS011;8287;51.644;8.494;2022-10-03T13:17:44;4.00;;;3.58;;
16354;SDS011;8287;51.644;8.494;2022-10-03T13:20:21;5.05;;;3.30;;
16354;SDS011;8287;51.644;8.494;2022-10-03T13:22:54;3.30;;;3.00;;
16354;SDS011;8287;51.644;8.494;2022-10-03T13:25:33;5.85;;;3.10;;
16354;SDS011;8287;51.644;8.494;2022-10-03T13:28:05;6.40;;;3.78;;
16354;SDS011;8287;51.644;8.494;2022-10-03T13:30:40;5.25;;;3.20;;
16354;SDS011;8287;51.644;8.494;2022-10-03T13:33:14;5.97;;;3.83;;
16354;SDS011;8287;51.644;8.494;2022-10-03T13:35:44;4.38;;;3.97;;
16354;SDS011;8287;51.644;8.494;2022-10-03T13:38:39;4.95;;;3.63;;
16354;SDS011;8287;51.644;8.494;2022-10-03T13:41:25;3.60;;;3.30;;
16354;SDS011;8287;51.644;8.494;2022-10-03T13:43:58;7.65;;;3.78;;
16354;SDS011;8287;51.644;8.494;2022-10-03T13:46:28;3.75;;;3.28;;
16354;SDS011;8287;51.644;8.494;2022-10-03T13:49:04;3.78;;;3.58;;
16354;SDS011;8287;51.644;8.494;2022-10-03T13:51:45;6.03;;;4.20;;
16354;SDS011;8287;51.644;8.494;2022-10-03T13:54:17;6.18;;;3.60;;
16354;SDS011;8287;51.644;8.494;2022-10-03T13:56:50;5.93;;;4.40;;
16354;SDS011;8287;51.644;8.494;2022-10-03T14:02:27;4.53;;;3.72;;
16354;SDS011;8287;51.644;8.494;2022-10-03T14:05:29;4.15;;;3.80;;
16354;SDS011;8287;51.644;8.494;2022-10-03T14:08:16;5.97;;;3.92;;
16354;SDS011;8287;51.644;8.494;2022-10-03T14:11:07;7.65;;;4.00;;
16354;SDS011;8287;51.644;8.494;2022-10-03T14:13:50;7.22;;;3.90;;
16354;SDS011;8287;51.644;8.494;2022-10-03T14:16:33;4.28;;;3.92;;
16354;SDS011;8287;51.644;8.494;2022-10-03T14:19:04;6.28;;;3.88;;
16354;SDS011;8287;51.644;8.494;2022-10-03T14:21:56;5.60;;;3.75;;
16354;SDS011;8287;51.644;8.494;2022-10-03T14:24:33;5.50;;;4.40;;
16354;SDS011;8287;51.644;8.494;2022-10-03T14:27:10;5.80;;;4.88;;
16354;SDS011;8287;51.644;8.494;2022-10-03T14:29:48;7.93;;;4.38;;
16354;SDS011;8287;51.644;8.494;2022-10-03T14:32:24;4.45;;;4.07;;
16354;SDS011;8287;51.644;8.494;2022-10-03T14:34:58;5.65;;;5.13;;
16354;SDS011;8287;51.644;8.494;2022-10-03T14:37:34;7.60;;;5.63;;
16354;SDS011;8287;51.644;8.494;2022-10-03T14:40:12;9.48;;;4.93;;
16354;SDS011;8287;51.644;8.494;2022-10-03T14:43:02;4.85;;;4.10;;
16354;SDS011;8287;51.644;8.494;2022-10-03T14:45:41;9.30;;;4.78;;
16354;SDS011;8287;51.644;8.494;2022-10-03T14:48:12;7.30;;;4.47;;
16354;SDS011;8287;51.644;8.494;2022-10-03T14:50:42;8.43;;;4.07;;
16354;SDS011;8287;51.644;8.494;2022-10-03T14:53:14;8.75;;;4.47;;
16354;SDS011;8287;51.644;8.494;2022-10-03T14:55:45;5.47;;;4.97;;
16354;SDS011;8287;51.644;8.494;2022-10-03T14:58:22;5.68;;;5.18;;
16354;SDS011;8287;51.644;8.494;2022-10-03T15:00:53;4.82;;;4.18;;
16354;SDS011;8287;51.644;8.494;2022-10-03T15:03:29;4.68;;;4.28;;
16354;SDS011;8287;51.644;8.494;2022-10-03T15:08:59;6.20;;;4.85;;
16354;SDS011;8287;51.644;8.494;2022-10-03T15:11:30;7.85;;;4.80;;
16354;SDS011;8287;51.644;8.494;2022-10-03T15:14:00;5.50;;;4.85;;
16354;SDS011;8287;51.644;8.494;2022-10-03T15:16:29;7.38;;;5.95;;
16354;SDS011;8287;51.644;8.494;2022-10-03T15:18:59;8.70;;;6.60;;
16354;SDS011;8287;51.644;8.494;2022-10-03T15:21:30;10.45;;;8.55;;
16354;SDS011;8287;51.644;8.494;2022-10-03T15:23:58;6.70;;;5.97;;
16354;SDS011;8287;51.644;8.494;2022-10-03T15:26:31;5.65;;;5.20;;
16354;SDS011;8287;51.644;8.494;2022-10-03T15:29:00;6.18;;;4.28;;
16354;SDS011;8287;51.644;8.494;2022-10-03T15:31:32;4.45;;;3.90;;
16354;SDS011;8287;51.644;8.494;2022-10-03T15:34:00;6.90;;;4.78;;
16354;SDS011;8287;51.644;8.494;2022-10-03T15:36:30;6.57;;;4.80;;
16354;SDS011;8287;51.644;8.494;2022-10-03T15:39:03;11.65;;;10.55;;
16354;SDS011;8287;51.644;8.494;2022-10-03T15:41:33;4.97;;;4.53;;
16354;SDS011;8287;51.644;8.494;2022-10-03T15:44:05;6.78;;;4.95;;
16354;SDS011;8287;51.644;8.494;2022-10-03T15:46:42;5.22;;;4.80;;
16354;SDS011;8287;51.644;8.494;2022-10-03T15:49:14;5.43;;;4.22;;
16354;SDS011;8287;51.644;8.494;2022-10-03T15:51:46;4.65;;;3.95;;
16354;SDS011;8287;51.644;8.494;2022-10-03T15:54:15;5.40;;;4.18;;
16354;SDS011;8287;51.644;8.494;2022-10-03T15:56:48;4.45;;;4.00;;
16354;SDS011;8287;51.644;8.494;2022-10-03T15:59:18;5.40;;;5.00;;
16354;SDS011;8287;51.644;8.494;2022-10-03T16:01:48;5.72;;;5.20;;
16354;SDS011;8287;51.644;8.494;2022-10-03T16:04:19;5.07;;;4.45;;
16354;SDS011;8287;51.644;8.494;2022-10-03T16:06:49;5.22;;;4.70;;
16354;SDS011;8287;51.644;8.494;2022-10-03T16:09:29;5.78;;;5.38;;
16354;SDS011;8287;51.644;8.494;2022-10-03T16:12:13;6.05;;;5.63;;
16354;SDS011;8287;51.644;8.494;2022-10-03T16:15:01;6.35;;;5.95;;
16354;SDS011;8287;51.644;8.494;2022-10-03T16:17:41;7.45;;;6.82;;
16354;SDS011;8287;51.644;8.494;2022-10-03T16:20:14;6.97;;;6.50;;
16354;SDS011;8287;51.644;8.494;2022-10-03T16:22:46;8.10;;;7.60;;
16354;SDS011;8287;51.644;8.494;2022-10-03T16:25:18;10.02;;;5.88;;
16354;SDS011;8287;51.644;8.494;2022-10-03T16:27:49;7.53;;;6.57;;
16354;SDS011;8287;51.644;8.494;2022-10-03T16:30:20;8.05;;;7.32;;
16354;SDS011;8287;51.644;8.494;2022-10-03T16:32:51;8.50;;;7.80;;
16354;SDS011;8287;51.644;8.494;2022-10-03T16:35:35;8.38;;;7.80;;
16354;SDS011;8287;51.644;8.494;2022-10-03T16:38:05;8.65;;;7.68;;
16354;SDS011;8287;51.644;8.494;2022-10-03T16:40:40;7.53;;;7.03;;
16354;SDS011;8287;51.644;8.494;2022-10-03T16:43:12;7.95;;;7.35;;
16354;SDS011;8287;51.644;8.494;2022-10-03T16:45:43;7.85;;;7.35;;
16354;SDS011;8287;51.644;8.494;2022-10-03T16:48:13;8.20;;;7.50;;
16354;SDS011;8287;51.644;8.494;2022-10-03T16:51:03;15.32;;;10.52;;
16354;SDS011;8287;51.644;8.494;2022-10-03T16:53:31;15.35;;;14.07;;
16354;SDS011;8287;51.644;8.494;2022-10-03T16:56:02;8.68;;;7.93;;
16354;SDS011;8287;51.644;8.494;2022-10-03T16:58:32;10.20;;;9.27;;
16354;SDS011;8287;51.644;8.494;2022-10-03T17:01:04;7.90;;;7.20;;
16354;SDS011;8287;51.644;8.494;2022-10-03T17:03:34;9.20;;;6.32;;
16354;SDS011;8287;51.644;8.494;2022-10-03T17:06:06;8.80;;;8.10;;
16354;SDS011;8287;51.644;8.494;2022-10-03T17:08:41;8.48;;;7.82;;
16354;SDS011;8287;51.644;8.494;2022-10-03T17:11:14;6.97;;;6.25;;
16354;SDS011;8287;51.644;8.494;2022-10-03T17:13:45;6.80;;;6.32;;
16354;SDS011;8287;51.644;8.494;2022-10-03T17:16:14;6.85;;;6.35;;
16354;SDS011;8287;51.644;8.494;2022-10-03T17:18:56;12.00;;;6.15;;
16354;SDS011;8287;51.644;8.494;2022-10-03T17:21:33;7.60;;;5.85;;
16354;SDS011;8287;51.644;8.494;2022-10-03T17:24:06;7.15;;;6.00;;
16354;SDS011;8287;51.644;8.494;2022-10-03T17:26:40;5.85;;;5.35;;
16354;SDS011;8287;51.644;8.494;2022-10-03T17:29:11;7.50;;;6.10;;
16354;SDS011;8287;51.644;8.494;2022-10-03T17:31:43;9.60;;;5.60;;
16354;SDS011;8287;51.644;8.494;2022-10-03T17:34:14;6.53;;;5.93;;
16354;SDS011;8287;51.644;8.494;2022-10-03T17:36:55;9.38;;;6.32;;
16354;SDS011;8287;51.644;8.494;2022-10-03T17:39:34;7.05;;;6.30;;
16354;SDS011;8287;51.644;8.494;2022-10-03T17:42:07;6.43;;;5.20;;
16354;SDS011;8287;51.644;8.494;2022-10-03T17:44:45;6.35;;;5.93;;
16354;SDS011;8287;51.644;8.494;2022-10-03T17:47:25;5.80;;;5.40;;
16354;SDS011;8287;51.644;8.494;2022-10-03T17:49:59;6.95;;;5.22;;
16354;SDS011;8287;51.644;8.494;2022-10-03T17:52:31;10.00;;;4.95;;
16354;SDS011;8287;51.644;8.494;2022-10-03T17:55:04;6.00;;;5.25;;
16354;SDS011;8287;51.644;8.494;2022-10-03T17:57:35;6.57;;;6.03;;
16354;SDS011;8287;51.644;8.494;2022-10-03T18:00:07;15.65;;;14.05;;
16354;SDS011;8287;51.644;8.494;2022-10-03T18:02:44;17.98;;;14.27;;
16354;SDS011;8287;51.644;8.494;2022-10-03T18:05:18;17.98;;;16.13;;
16354;SDS011;8287;51.644;8.494;2022-10-03T18:07:48;23.33;;;18.67;;
16354;SDS011;8287;51.644;8.494;2022-10-03T18:10:19;22.80;;;20.67;;
16354;SDS011;8287;51.644;8.494;2022-10-03T18:12:50;16.02;;;14.45;;
16354;SDS011;8287;51.644;8.494;2022-10-03T18:15:39;11.45;;;10.43;;
16354;SDS011;8287;51.644;8.494;2022-10-03T18:21:14;7.53;;;6.82;;
16354;SDS011;8287;51.644;8.494;2022-10-03T18:23:49;6.03;;;5.43;;
16354;SDS011;8287;51.644;8.494;2022-10-03T18:26:32;4.93;;;4.45;;
16354;SDS011;8287;51.644;8.494;2022-10-03T18:29:05;6.20;;;5.47;;
16354;SDS011;8287;51.644;8.494;2022-10-03T18:31:41;6.38;;;4.90;;
16354;SDS011;8287;51.644;8.494;2022-10-03T18:34:13;8.68;;;5.40;;
16354;SDS011;8287;51.644;8.494;2022-10-03T18:36:44;8.15;;;4.90;;
16354;SDS011;8287;51.644;8.494;2022-10-03T18:39:14;7.40;;;4.50;;
16354;SDS011;8287;51.644;8.494;2022-10-03T18:41:43;7.03;;;5.03;;
16354;SDS011;8287;51.644;8.494;2022-10-03T18:44:14;5.05;;;4.65;;
16354;SDS011;8287;51.644;8.494;2022-10-03T18:46:43;5.68;;;5.07;;
16354;SDS011;8287;51.644;8.494;2022-10-03T18:49:15;5.30;;;4.78;;
16354;SDS011;8287;51.644;8.494;2022-10-03T18:51:47;5.68;;;4.75;;
16354;SDS011;8287;51.644;8.494;2022-10-03T18:54:23;5.40;;;4.93;;
16354;SDS011;8287;51.644;8.494;2022-10-03T18:57:04;5.45;;;4.90;;
16354;SDS011;8287;51.644;8.494;2022-10-03T18:59:36;6.50;;;5.35;;
16354;SDS011;8287;51.644;8.494;2022-10-03T19:02:14;8.48;;;5.80;;
16354;SDS011;8287;51.644;8.494;2022-10-03T19:04:49;8.57;;;5.53;;
16354;SDS011;8287;51.644;8.494;2022-10-03T19:07:19;5.93;;;5.30;;
16354;SDS011;8287;51.644;8.494;2022-10-03T19:12:58;6.07;;;5.50;;
16354;SDS011;8287;51.644;8.494;2022-10-03T19:15:35;5.55;;;5.05;;
16354;SDS011;8287;51.644;8.494;2022-10-03T19:18:20;5.22;;;4.70;;
16354;SDS011;8287;51.644;8.494;2022-10-03T19:20:52;6.15;;;5.50;;
16354;SDS011;8287;51.644;8.494;2022-10-03T19:23:22;6.90;;;4.80;;
16354;SDS011;8287;51.644;8.494;2022-10-03T19:25:52;5.75;;;4.38;;
16354;SDS011;8287;51.644;8.494;2022-10-03T19:28:23;5.85;;;4.45;;
16354;SDS011;8287;51.644;8.494;2022-10-03T19:31:00;4.75;;;3.78;;
16354;SDS011;8287;51.644;8.494;2022-10-03T19:33:31;5.13;;;4.60;;
16354;SDS011;8287;51.644;8.494;2022-10-03T19:36:03;4.82;;;4.28;;
16354;SDS011;8287;51.644;8.494;2022-10-03T19:38:32;6.63;;;4.03;;